createdAt,value
2024-03-12T00:00:12.253Z,68.95
2024-03-12T00:02:38.850Z,67.95
2024-03-12T00:05:05.541Z,70.72
2024-03-12T00:07:32.165Z,70.49
2024-03-12T00:09:58.803Z,70.42
2024-03-12T00:12:25.333Z,69.27
2024-03-12T00:14:51.841Z,67.95
2024-03-12T00:17:18.234Z,67.15
2024-03-12T00:19:44.663Z,67.10
2024-03-12T00:22:11.081Z,65.52
2024-03-12T00:24:37.569Z,64.87
2024-03-12T00:27:04.145Z,65.43
2024-03-12T00:29:30.553Z,65.25
2024-03-12T00:31:56.982Z,63.96
2024-03-12T00:34:23.408Z,63.17
2024-03-12T00:36:49.882Z,62.77
2024-03-12T00:39:16.337Z,62.19
2024-03-12T00:41:42.779Z,62.51
2024-03-12T00:44:09.209Z,65.20
2024-03-12T00:46:35.677Z,64.57
2024-03-12T00:49:02.225Z,63.43
2024-03-12T00:51:28.693Z,63.44
2024-03-12T00:53:55.108Z,62.54
2024-03-12T00:56:21.560Z,62.32
2024-03-12T00:58:47.962Z,62.26
2024-03-12T01:01:14.469Z,63.04
2024-03-12T01:03:40.985Z,63.77
2024-03-12T01:06:07.465Z,63.25
2024-03-12T01:08:33.916Z,63.34
2024-03-12T01:11:00.523Z,64.03
2024-03-12T01:13:27.193Z,64.42
2024-03-12T01:15:53.817Z,64.09
2024-03-12T01:18:20.529Z,64.02
2024-03-12T01:20:47.092Z,63.54
2024-03-12T01:23:14.949Z,63.66
2024-03-12T01:25:50.012Z,63.01
2024-03-12T01:28:18.209Z,63.29
2024-03-12T01:30:44.908Z,62.58
2024-03-12T01:33:11.636Z,63.01
2024-03-12T01:35:38.271Z,62.95
2024-03-12T01:38:04.835Z,63.88
2024-03-12T01:40:31.891Z,62.97
2024-03-12T01:42:58.826Z,62.38
2024-03-12T01:45:25.577Z,62.96
2024-03-12T01:47:52.343Z,62.61
2024-03-12T01:50:18.932Z,62.68
2024-03-12T01:52:45.550Z,62.78
2024-03-12T01:55:12.142Z,61.96
2024-03-12T01:57:38.782Z,62.58
2024-03-12T02:00:05.393Z,63.00
2024-03-12T02:02:31.957Z,62.98
2024-03-12T02:04:58.529Z,62.84
2024-03-12T02:07:25.106Z,63.26
2024-03-12T02:09:51.735Z,62.32
2024-03-12T02:12:18.321Z,62.97
2024-03-12T02:14:44.893Z,62.93
2024-03-12T02:17:11.460Z,63.70
2024-03-12T02:19:38.097Z,63.96
2024-03-12T02:22:04.780Z,65.47
2024-03-12T02:24:31.483Z,64.46
2024-03-12T02:26:58.141Z,64.37
2024-03-12T02:29:24.726Z,63.55
2024-03-12T02:31:51.284Z,63.56
2024-03-12T02:34:17.861Z,62.83
2024-03-12T02:36:44.434Z,63.12
2024-03-12T02:39:12.265Z,62.87
2024-03-12T02:41:38.838Z,62.81
2024-03-12T02:44:05.676Z,62.67
2024-03-12T02:46:32.267Z,62.08
2024-03-12T02:48:58.966Z,62.58
2024-03-12T02:51:25.660Z,62.13
2024-03-12T02:53:52.233Z,62.88
2024-03-12T02:56:18.882Z,63.00
2024-03-12T02:58:45.492Z,63.23
2024-03-12T03:01:12.179Z,63.54
2024-03-12T03:03:38.697Z,64.29
2024-03-12T03:06:05.164Z,66.28
2024-03-12T03:08:31.570Z,65.56
2024-03-12T03:10:58.067Z,64.65
2024-03-12T03:13:24.625Z,64.15
2024-03-12T03:15:51.210Z,66.91
2024-03-12T03:18:17.682Z,66.65
2024-03-12T03:20:44.183Z,66.92
2024-03-12T03:23:10.663Z,67.20
2024-03-12T03:25:37.099Z,67.20
2024-03-12T03:28:03.619Z,66.52
2024-03-12T03:30:30.167Z,65.29
2024-03-12T03:32:56.625Z,64.96
2024-03-12T03:35:23.073Z,67.37
2024-03-12T03:37:49.700Z,66.92
2024-03-12T03:40:16.172Z,65.94
2024-03-12T03:42:42.648Z,66.77
2024-03-12T03:45:09.178Z,66.78
2024-03-12T03:47:35.704Z,66.25
2024-03-12T03:50:02.271Z,65.84
2024-03-12T03:52:28.728Z,67.70
2024-03-12T03:54:55.188Z,69.63
2024-03-12T03:57:21.661Z,67.90
2024-03-12T03:59:48.057Z,68.30
2024-03-12T04:02:14.687Z,68.04
2024-03-12T04:04:41.350Z,67.63
2024-03-12T04:07:08.027Z,66.86
2024-03-12T04:09:34.672Z,66.95
2024-03-12T04:12:01.113Z,66.55
2024-03-12T04:14:27.542Z,67.45
2024-03-12T04:16:53.960Z,67.73
2024-03-12T04:19:20.538Z,68.87
2024-03-12T04:21:47.111Z,68.34
2024-03-12T04:24:13.538Z,67.48
2024-03-12T04:26:39.972Z,67.92
2024-03-12T04:29:06.501Z,71.51
2024-03-12T04:31:32.950Z,69.73
2024-03-12T04:33:59.484Z,69.00
2024-03-12T04:36:26.138Z,68.05
2024-03-12T04:38:52.671Z,69.16
2024-03-12T04:41:19.232Z,69.17
2024-03-12T04:43:45.743Z,67.90
2024-03-12T04:46:12.345Z,67.49
2024-03-12T04:48:38.824Z,66.86
2024-03-12T04:51:05.293Z,66.91
2024-03-12T04:53:31.717Z,67.80
2024-03-12T04:55:58.187Z,67.71
2024-03-12T04:58:24.605Z,67.89
2024-03-12T05:00:51.100Z,68.07
2024-03-12T05:03:17.708Z,68.07
2024-03-12T05:05:44.173Z,67.76
2024-03-12T05:08:10.640Z,67.15
2024-03-12T05:10:37.524Z,67.22
2024-03-12T05:13:04.448Z,67.37
2024-03-12T05:15:31.257Z,67.68
2024-03-12T05:17:57.922Z,67.82
2024-03-12T05:20:24.951Z,66.15
2024-03-12T05:22:51.770Z,67.76
2024-03-12T05:25:18.451Z,67.09
2024-03-12T05:27:45.096Z,71.19
2024-03-12T05:30:11.693Z,69.55
2024-03-12T05:32:38.313Z,69.52
2024-03-12T05:35:04.982Z,69.09
2024-03-12T05:37:31.716Z,69.96
2024-03-12T05:39:58.372Z,69.31
2024-03-12T05:42:25.017Z,69.63
2024-03-12T05:44:51.650Z,69.84
2024-03-12T05:47:18.227Z,69.63
2024-03-12T05:49:44.894Z,69.77
2024-03-12T05:52:11.585Z,69.81
2024-03-12T05:54:38.175Z,70.26
2024-03-12T05:57:04.746Z,70.50
2024-03-12T05:59:31.487Z,70.60
2024-03-12T06:01:58.112Z,70.54
2024-03-12T06:04:24.911Z,68.65
2024-03-12T06:06:51.668Z,70.57
2024-03-12T06:09:18.284Z,69.91
2024-03-12T06:11:44.995Z,70.59
2024-03-12T06:14:11.687Z,69.97
2024-03-12T06:16:38.282Z,69.56
2024-03-12T06:19:04.881Z,70.23
2024-03-12T06:21:31.548Z,69.25
2024-03-12T06:23:58.137Z,70.25
2024-03-12T06:26:25.157Z,69.29
2024-03-12T06:28:52.291Z,69.10
2024-03-12T06:31:18.968Z,68.48
2024-03-12T06:33:45.626Z,69.08
2024-03-12T06:36:12.250Z,68.14
2024-03-12T06:38:38.891Z,67.81
2024-03-12T06:41:05.488Z,67.56
2024-03-12T06:43:32.094Z,67.53
2024-03-12T06:45:58.707Z,68.08
2024-03-12T06:48:25.312Z,68.12
2024-03-12T06:50:51.930Z,68.71
2024-03-12T06:53:18.552Z,68.64
2024-03-12T06:55:45.149Z,66.83
2024-03-12T06:58:11.793Z,66.58
2024-03-12T07:00:38.975Z,66.95
2024-03-12T07:03:05.970Z,66.97
2024-03-12T07:05:32.698Z,68.39
2024-03-12T07:07:59.280Z,69.27
2024-03-12T07:10:25.929Z,69.95
2024-03-12T07:12:52.566Z,71.10
2024-03-12T07:15:19.242Z,70.80
2024-03-12T07:17:45.823Z,70.01
2024-03-12T07:20:12.431Z,68.55
2024-03-12T07:22:41.135Z,68.04
2024-03-12T07:25:09.103Z,67.64
2024-03-12T07:27:35.896Z,67.68
2024-03-12T07:30:02.567Z,67.54
2024-03-12T07:32:29.286Z,67.99
2024-03-12T07:34:55.969Z,67.27
2024-03-12T07:37:22.740Z,65.74
2024-03-12T07:39:49.492Z,66.38
2024-03-12T07:42:16.221Z,65.54
2024-03-12T07:44:43.007Z,65.98
2024-03-12T07:47:09.635Z,64.58
2024-03-12T07:49:36.402Z,65.09
2024-03-12T07:52:03.237Z,67.13
2024-03-12T07:54:29.961Z,67.57
2024-03-12T07:56:56.583Z,66.39
2024-03-12T07:59:25.305Z,65.91
2024-03-12T08:01:52.001Z,65.30
2024-03-12T08:04:18.751Z,65.25
2024-03-12T08:06:45.451Z,64.40
2024-03-12T08:09:12.129Z,64.64
2024-03-12T08:11:38.958Z,64.76
2024-03-12T08:14:05.798Z,64.54
2024-03-12T08:16:32.422Z,62.76
2024-03-12T08:18:59.067Z,63.81
2024-03-12T08:21:25.695Z,63.31
2024-03-12T08:23:52.497Z,61.69
2024-03-12T08:26:19.076Z,60.84
2024-03-12T08:28:45.784Z,62.00
2024-03-12T08:31:19.166Z,61.12
2024-03-12T08:33:54.905Z,59.87
2024-03-12T08:36:22.361Z,60.66
2024-03-12T08:38:49.190Z,60.16
2024-03-12T08:41:15.797Z,61.12
2024-03-12T08:43:42.559Z,61.83
2024-03-12T08:46:09.602Z,58.90
2024-03-12T08:48:36.447Z,59.81
2024-03-12T08:51:03.107Z,58.87
2024-03-12T08:53:29.723Z,58.91
2024-03-12T08:55:56.423Z,59.22
2024-03-12T08:58:29.241Z,60.83
2024-03-12T09:00:56.087Z,57.84
2024-03-12T09:03:22.779Z,58.10
2024-03-12T09:05:49.500Z,55.78
2024-03-12T09:08:16.219Z,55.46
2024-03-12T09:10:43.057Z,56.13
2024-03-12T09:13:09.713Z,57.49
2024-03-12T09:15:36.710Z,56.60
2024-03-12T09:18:03.337Z,58.98
2024-03-12T09:20:30.017Z,57.84
2024-03-12T09:22:56.613Z,57.60
2024-03-12T09:25:23.676Z,58.87
2024-03-12T09:27:50.326Z,57.56
2024-03-12T09:30:17.021Z,59.74
2024-03-12T09:32:43.525Z,56.39
2024-03-12T09:35:10.116Z,58.04
2024-03-12T09:37:37.032Z,58.56
2024-03-12T09:40:03.820Z,58.50
2024-03-12T09:42:30.395Z,59.45
2024-03-12T09:44:56.806Z,60.67
2024-03-12T09:47:23.276Z,59.49
2024-03-12T09:49:49.907Z,59.19
2024-03-12T09:52:16.480Z,60.46
2024-03-12T09:54:42.951Z,57.20
2024-03-12T09:57:09.407Z,55.56
2024-03-12T09:59:36.158Z,55.96
2024-03-12T10:02:04.852Z,55.11
2024-03-12T10:04:33.109Z,53.83
2024-03-12T10:06:59.563Z,55.26
2024-03-12T10:09:26.183Z,56.83
2024-03-12T10:11:52.673Z,56.92
2024-03-12T10:14:19.191Z,57.92
2024-03-12T10:16:45.630Z,57.53
2024-03-12T10:19:12.262Z,56.30
2024-03-12T10:21:38.887Z,57.23
2024-03-12T10:24:05.384Z,56.03
2024-03-12T10:26:31.946Z,56.04
2024-03-12T10:28:58.457Z,54.38
2024-03-12T10:31:25.227Z,50.91
2024-03-12T10:33:52.578Z,46.74
2024-03-12T10:36:19.598Z,45.97
2024-03-12T10:38:46.267Z,46.56
2024-03-12T10:41:12.879Z,44.87
2024-03-12T10:43:39.714Z,44.28
2024-03-12T10:46:06.632Z,47.80
2024-03-12T10:48:33.500Z,47.90
2024-03-12T10:51:00.156Z,46.06
2024-03-12T10:53:28.978Z,46.50
2024-03-12T10:55:57.117Z,46.77
2024-03-12T10:58:23.923Z,47.41
2024-03-12T11:00:50.656Z,45.61
2024-03-12T11:03:17.657Z,44.89
2024-03-12T11:05:44.511Z,46.03
2024-03-12T11:08:11.139Z,46.33
2024-03-12T11:10:37.951Z,47.15
2024-03-12T11:13:04.638Z,48.95
2024-03-12T11:15:31.186Z,48.91
2024-03-12T11:17:57.737Z,48.61
2024-03-12T11:20:27.855Z,49.52
2024-03-12T11:22:55.172Z,49.26
2024-03-12T11:25:21.692Z,50.33
2024-03-12T11:27:51.334Z,50.09
2024-03-12T11:30:17.867Z,50.50
2024-03-12T11:32:44.419Z,51.64
2024-03-12T11:35:10.859Z,52.89
2024-03-12T11:37:37.271Z,53.47
2024-03-12T11:40:03.797Z,53.15
2024-03-12T11:42:30.322Z,51.96
2024-03-12T11:44:56.954Z,51.05
2024-03-12T11:47:23.442Z,50.81
2024-03-12T11:49:49.889Z,50.30
2024-03-12T11:52:16.433Z,52.06
2024-03-12T11:54:43.107Z,53.07
2024-03-12T11:57:09.629Z,53.97
2024-03-12T11:59:36.192Z,52.69
2024-03-12T12:02:04.597Z,53.71
2024-03-12T12:04:31.328Z,53.07
2024-03-12T12:06:58.083Z,55.18
2024-03-12T12:09:24.650Z,55.75
2024-03-12T12:11:51.257Z,56.05
2024-03-12T12:14:17.973Z,56.35
2024-03-12T12:16:44.493Z,56.00
2024-03-12T12:19:16.325Z,55.66
2024-03-12T12:21:48.322Z,53.94
2024-03-12T12:24:15.031Z,53.38
2024-03-12T12:26:41.732Z,54.47
2024-03-12T12:29:08.153Z,52.63
2024-03-12T12:31:34.674Z,52.06
2024-03-12T12:34:01.119Z,52.31
2024-03-12T12:36:27.645Z,51.87
2024-03-12T12:38:59.051Z,51.36
2024-03-12T12:41:29.827Z,51.24
2024-03-12T12:43:56.333Z,52.59
2024-03-12T12:46:22.831Z,53.30
2024-03-12T12:48:49.414Z,52.33
2024-03-12T12:51:15.899Z,51.61
2024-03-12T12:53:42.480Z,51.18
2024-03-12T12:56:08.940Z,51.06
2024-03-12T12:58:35.703Z,49.89
2024-03-12T13:01:02.597Z,49.68
2024-03-12T13:03:29.132Z,49.93
2024-03-12T13:05:55.663Z,49.46
2024-03-12T13:08:22.126Z,48.57
2024-03-12T13:10:48.612Z,49.15
2024-03-12T13:13:15.143Z,50.66
2024-03-12T13:15:41.903Z,50.61
2024-03-12T13:18:08.662Z,51.22
2024-03-12T13:20:35.416Z,51.19
2024-03-12T13:23:01.940Z,49.62
2024-03-12T13:25:28.440Z,49.74
2024-03-12T13:27:55.138Z,50.23
2024-03-12T13:30:21.611Z,50.53
2024-03-12T13:32:48.067Z,51.11
2024-03-12T13:35:14.595Z,50.43
2024-03-12T13:37:41.079Z,50.54
2024-03-12T13:40:09.541Z,48.98
2024-03-12T13:42:36.290Z,49.79
2024-03-12T13:45:02.875Z,48.45
2024-03-12T13:47:29.307Z,49.81
2024-03-12T13:49:56.192Z,49.01
2024-03-12T13:52:22.899Z,48.88
2024-03-12T13:54:49.700Z,48.81
2024-03-12T13:57:16.143Z,48.14
2024-03-12T13:59:42.699Z,47.53
2024-03-12T14:02:09.328Z,48.58
2024-03-12T14:04:35.921Z,47.92
2024-03-12T14:07:02.470Z,47.62
2024-03-12T14:09:28.980Z,48.39
2024-03-12T14:11:55.422Z,47.88
2024-03-12T14:14:21.960Z,48.47
2024-03-12T14:16:48.476Z,47.89
2024-03-12T14:19:15.058Z,46.71
2024-03-12T14:21:41.715Z,47.18
2024-03-12T14:24:08.370Z,46.26
2024-03-12T14:26:34.959Z,46.56
2024-03-12T14:29:01.649Z,46.32
2024-03-12T14:31:28.345Z,47.55
2024-03-12T14:33:55.195Z,46.60
2024-03-12T14:36:21.954Z,46.76
2024-03-12T14:38:51.869Z,48.66
2024-03-12T14:41:23.093Z,48.50
2024-03-12T14:43:49.693Z,49.62
2024-03-12T14:46:16.308Z,53.31
2024-03-12T14:48:43.218Z,51.61
2024-03-12T14:51:09.943Z,49.44
2024-03-12T14:53:36.593Z,50.13
2024-03-12T14:56:03.198Z,50.20
2024-03-12T14:58:29.733Z,50.32
2024-03-12T15:00:56.271Z,50.27
2024-03-12T15:03:22.732Z,48.42
2024-03-12T15:05:49.201Z,48.73
2024-03-12T15:08:15.644Z,48.06
2024-03-12T15:10:42.176Z,46.54
2024-03-12T15:13:08.743Z,47.08
2024-03-12T15:15:35.250Z,47.92
2024-03-12T15:18:01.909Z,48.43
2024-03-12T15:20:28.544Z,49.30
2024-03-12T15:22:54.954Z,47.88
2024-03-12T15:25:21.432Z,49.23
2024-03-12T15:27:47.981Z,48.46
2024-03-12T15:30:14.445Z,49.10
2024-03-12T15:32:41.003Z,49.21
2024-03-12T15:35:07.728Z,48.52
2024-03-12T15:37:34.285Z,48.72
2024-03-12T15:40:00.863Z,48.82
2024-03-12T15:42:27.571Z,49.74
2024-03-12T15:44:54.153Z,49.01
2024-03-12T15:47:20.606Z,48.78
2024-03-12T15:49:47.078Z,49.06
2024-03-12T15:52:13.764Z,47.64
2024-03-12T15:54:42.564Z,49.00
2024-03-12T15:57:09.831Z,47.61
2024-03-12T15:59:36.640Z,48.31
2024-03-12T16:02:03.512Z,48.79
2024-03-12T16:04:30.246Z,47.93
2024-03-12T16:06:56.878Z,47.47
2024-03-12T16:09:23.659Z,47.26
2024-03-12T16:11:50.334Z,47.12
2024-03-12T16:14:16.936Z,45.99
2024-03-12T16:16:43.542Z,46.43
2024-03-12T16:19:10.346Z,47.65
2024-03-12T16:21:36.959Z,46.99
2024-03-12T16:24:03.688Z,47.84
2024-03-12T16:26:30.323Z,47.72
2024-03-12T16:28:57.039Z,48.14
2024-03-12T16:31:23.671Z,47.12
2024-03-12T16:33:50.315Z,47.40
2024-03-12T16:36:16.929Z,47.60
2024-03-12T16:38:43.577Z,47.54
2024-03-12T16:41:10.209Z,47.78
2024-03-12T16:43:37.025Z,48.90
2024-03-12T16:46:03.692Z,48.96
2024-03-12T16:48:33.590Z,48.50
2024-03-12T16:51:02.009Z,48.08
2024-03-12T16:53:28.656Z,47.25
2024-03-12T16:55:55.466Z,46.97
2024-03-12T16:58:22.107Z,47.26
2024-03-12T17:00:48.938Z,47.48
2024-03-12T17:03:15.552Z,47.31
2024-03-12T17:05:42.255Z,46.96
2024-03-12T17:08:08.937Z,47.82
2024-03-12T17:10:35.624Z,47.36
2024-03-12T17:13:02.256Z,48.09
2024-03-12T17:15:28.862Z,47.98
2024-03-12T17:17:55.675Z,48.31
2024-03-12T17:20:22.855Z,48.70
2024-03-12T17:22:52.076Z,48.97
2024-03-12T17:25:18.784Z,51.00
2024-03-12T17:27:45.565Z,51.48
2024-03-12T17:30:12.469Z,52.88
2024-03-12T17:32:39.188Z,54.51
2024-03-12T17:35:05.781Z,55.66
2024-03-12T17:37:32.479Z,58.07
2024-03-12T17:39:59.014Z,58.59
2024-03-12T17:42:28.589Z,57.04
2024-03-12T17:44:55.081Z,55.82
2024-03-12T17:47:21.534Z,55.71
2024-03-12T17:49:47.970Z,55.31
2024-03-12T17:52:14.461Z,55.37
2024-03-12T17:54:40.969Z,55.56
2024-03-12T17:57:07.424Z,55.61
2024-03-12T17:59:33.826Z,55.90
2024-03-12T18:02:00.440Z,55.08
2024-03-12T18:04:27.035Z,54.64
2024-03-12T18:06:53.488Z,54.67
2024-03-12T18:09:20.607Z,54.36
2024-03-12T18:11:50.560Z,54.26
2024-03-12T18:14:17.100Z,54.17
2024-03-12T18:16:43.603Z,55.41
2024-03-12T18:19:10.391Z,55.81
2024-03-12T18:21:36.935Z,54.58
2024-03-12T18:24:03.448Z,53.63
2024-03-12T18:26:29.909Z,52.30
2024-03-12T18:28:56.336Z,52.50
2024-03-12T18:31:22.979Z,52.14
2024-03-12T18:33:49.548Z,53.21
2024-03-12T18:36:16.062Z,54.94
2024-03-12T18:38:42.701Z,53.44
2024-03-12T18:41:09.369Z,53.61
2024-03-12T18:43:36.055Z,53.88
2024-03-12T18:46:02.762Z,54.87
2024-03-12T18:48:29.399Z,54.47
2024-03-12T18:50:56.056Z,59.15
2024-03-12T18:53:22.674Z,56.88
2024-03-12T18:55:49.308Z,55.37
2024-03-12T18:58:16.112Z,54.53
2024-03-12T19:00:42.908Z,54.87
2024-03-12T19:03:09.588Z,54.53
2024-03-12T19:05:36.258Z,55.15
2024-03-12T19:08:02.933Z,54.59
2024-03-12T19:10:29.677Z,54.49
2024-03-12T19:12:56.608Z,54.25
2024-03-12T19:15:23.323Z,54.37
2024-03-12T19:17:50.076Z,54.40
2024-03-12T19:20:16.801Z,54.19
2024-03-12T19:22:43.408Z,54.05
2024-03-12T19:25:10.043Z,53.71
2024-03-12T19:27:36.772Z,54.73
2024-03-12T19:30:03.486Z,53.65
2024-03-12T19:32:30.136Z,52.27
2024-03-12T19:34:56.762Z,54.59
2024-03-12T19:37:23.205Z,53.15
2024-03-12T19:39:50.406Z,53.56
2024-03-12T19:42:17.030Z,53.37
2024-03-12T19:44:43.571Z,52.67
2024-03-12T19:47:10.060Z,53.02
2024-03-12T19:49:36.559Z,52.93
2024-03-12T19:52:03.044Z,52.12
2024-03-12T19:54:29.474Z,52.14
2024-03-12T19:56:55.970Z,52.01
2024-03-12T19:59:22.451Z,52.22
2024-03-12T20:01:49.018Z,52.42
2024-03-12T20:04:15.619Z,51.81
2024-03-12T20:06:43.426Z,52.41
2024-03-12T20:09:11.315Z,52.45
2024-03-12T20:11:37.867Z,52.76
2024-03-12T20:14:04.386Z,53.03
2024-03-12T20:16:30.937Z,53.27
2024-03-12T20:18:57.443Z,53.03
2024-03-12T20:21:23.921Z,52.88
2024-03-12T20:23:50.351Z,53.00
2024-03-12T20:26:16.806Z,53.66
2024-03-12T20:28:43.224Z,52.82
2024-03-12T20:31:09.725Z,52.63
2024-03-12T20:33:36.383Z,52.70
2024-03-12T20:36:02.952Z,54.42
2024-03-12T20:38:29.578Z,55.25
2024-03-12T20:40:56.265Z,55.27
2024-03-12T20:43:22.969Z,55.46
2024-03-12T20:45:49.717Z,54.59
2024-03-12T20:48:16.348Z,53.63
2024-03-12T20:50:45.241Z,54.66
2024-03-12T20:53:11.793Z,53.99
2024-03-12T20:55:38.312Z,53.33
2024-03-12T20:58:04.799Z,52.82
2024-03-12T21:00:31.280Z,52.82
2024-03-12T21:02:57.812Z,53.38
2024-03-12T21:05:24.341Z,51.94
2024-03-12T21:07:50.790Z,52.28
2024-03-12T21:10:17.272Z,52.21
2024-03-12T21:12:44.078Z,55.63
2024-03-12T21:15:10.683Z,58.47
2024-03-12T21:17:37.179Z,60.06
2024-03-12T21:20:03.825Z,61.40
2024-03-12T21:22:30.270Z,62.16
2024-03-12T21:24:56.873Z,63.03
2024-03-12T21:27:23.329Z,63.07
2024-03-12T21:29:49.777Z,62.28
2024-03-12T21:32:16.290Z,62.08
2024-03-12T21:34:42.829Z,61.82
2024-03-12T21:37:09.336Z,63.45
2024-03-12T21:39:35.807Z,64.61
2024-03-12T21:42:02.255Z,65.94
2024-03-12T21:44:28.740Z,67.86
2024-03-12T21:46:57.449Z,67.35
2024-03-12T21:49:24.043Z,67.33
2024-03-12T21:51:50.744Z,67.94
2024-03-12T21:54:17.401Z,68.47
2024-03-12T21:56:44.035Z,68.52
2024-03-12T21:59:10.833Z,66.59
2024-03-12T22:01:37.643Z,67.17
2024-03-12T22:04:04.386Z,66.50
2024-03-12T22:06:30.988Z,66.03
2024-03-12T22:08:57.564Z,65.29
2024-03-12T22:11:26.157Z,65.48
2024-03-12T22:13:52.797Z,64.67
2024-03-12T22:16:19.571Z,64.94
2024-03-12T22:18:46.326Z,64.07
2024-03-12T22:21:12.966Z,63.26
2024-03-12T22:23:39.659Z,64.13
2024-03-12T22:26:06.242Z,62.55
2024-03-12T22:28:33.540Z,62.32
2024-03-12T22:31:00.153Z,62.22
2024-03-12T22:33:26.795Z,61.57
2024-03-12T22:35:53.402Z,61.53
2024-03-12T22:38:20.075Z,61.54
2024-03-12T22:40:46.712Z,59.63
2024-03-12T22:43:13.351Z,60.08
2024-03-12T22:45:39.983Z,60.04
2024-03-12T22:48:07.948Z,60.25
2024-03-12T22:50:34.564Z,60.99
2024-03-12T22:53:01.143Z,59.46
2024-03-12T22:55:27.672Z,59.16
2024-03-12T22:57:54.361Z,58.29
2024-03-12T23:00:20.917Z,58.46
2024-03-12T23:02:47.374Z,58.56
2024-03-12T23:05:13.794Z,57.74
2024-03-12T23:07:40.377Z,57.94
2024-03-12T23:10:06.852Z,57.33
2024-03-12T23:12:33.312Z,57.40
2024-03-12T23:14:59.757Z,58.31
2024-03-12T23:17:26.255Z,57.91
2024-03-12T23:19:55.168Z,58.24
2024-03-12T23:22:21.847Z,57.79
2024-03-12T23:24:48.348Z,57.84
2024-03-12T23:27:14.810Z,57.26
2024-03-12T23:29:41.301Z,56.96
2024-03-12T23:32:07.756Z,57.51
2024-03-12T23:34:34.215Z,58.33
2024-03-12T23:37:00.717Z,58.90
2024-03-12T23:39:27.166Z,59.06
2024-03-12T23:41:53.777Z,59.66
2024-03-12T23:44:20.323Z,59.66
2024-03-12T23:46:46.787Z,59.37
2024-03-12T23:49:13.211Z,61.63
2024-03-12T23:51:39.669Z,62.25
2024-03-12T23:54:06.203Z,63.70
2024-03-12T23:56:32.828Z,66.14
2024-03-12T23:58:59.503Z,66.26
